sensor_id;sensor_type;location;lat;lon;timestamp;temperature;humidity
1297;DHT22;641;48.492;9.184;2024-02-14T00:01:51;3.60;99.90
1297;DHT22;641;48.492;9.184;2024-02-14T00:04:16;3.60;99.90
1297;DHT22;641;48.492;9.184;2024-02-14T00:06:42;3.30;99.90
1297;DHT22;641;48.492;9.184;2024-02-14T00:09:08;3.50;99.90
1297;DHT22;641;48.492;9.184;2024-02-14T00:11:34;3.60;99.90
1297;DHT22;641;48.492;9.184;2024-02-14T00:13:59;3.70;99.90
1297;DHT22;641;48.492;9.184;2024-02-14T00:16:27;3.30;99.90
1297;DHT22;641;48.492;9.184;2024-02-14T00:18:55;3.00;99.90
1297;DHT22;641;48.492;9.184;2024-02-14T00:21:22;2.90;99.90
1297;DHT22;641;48.492;9.184;2024-02-14T00:23:48;3.10;99.90
1297;DHT22;641;48.492;9.184;2024-02-14T00:26:13;3.20;99.90
1297;DHT22;641;48.492;9.184;2024-02-14T00:28:39;3.10;99.90
1297;DHT22;641;48.492;9.184;2024-02-14T00:31:05;3.20;99.90
1297;DHT22;641;48.492;9.184;2024-02-14T00:33:31;3.10;99.90
1297;DHT22;641;48.492;9.184;2024-02-14T00:35:57;3.10;99.90
1297;DHT22;641;48.492;9.184;2024-02-14T00:38:22;3.10;99.90
1297;DHT22;641;48.492;9.184;2024-02-14T00:40:48;2.90;99.90
1297;DHT22;641;48.492;9.184;2024-02-14T00:43:14;2.70;99.90
1297;DHT22;641;48.492;9.184;2024-02-14T00:45:39;2.90;99.90
1297;DHT22;641;48.492;9.184;2024-02-14T00:48:05;3.30;99.90
1297;DHT22;641;48.492;9.184;2024-02-14T00:50:32;3.50;99.90
1297;DHT22;641;48.492;9.184;2024-02-14T00:52:59;3.60;99.90
1297;DHT22;641;48.492;9.184;2024-02-14T00:55:24;3.50;99.90
1297;DHT22;641;48.492;9.184;2024-02-14T00:57:50;3.60;99.90
1297;DHT22;641;48.492;9.184;2024-02-14T01:00:16;3.70;99.90
1297;DHT22;641;48.492;9.184;2024-02-14T01:02:42;3.60;99.90
1297;DHT22;641;48.492;9.184;2024-02-14T01:05:08;3.80;99.90
1297;DHT22;641;48.492;9.184;2024-02-14T01:07:34;3.60;99.90
1297;DHT22;641;48.492;9.184;2024-02-14T01:10:00;3.30;99.90
1297;DHT22;641;48.492;9.184;2024-02-14T01:12:25;3.40;99.90
1297;DHT22;641;48.492;9.184;2024-02-14T01:14:51;3.50;99.90
1297;DHT22;641;48.492;9.184;2024-02-14T01:17:17;3.70;99.90
1297;DHT22;641;48.492;9.184;2024-02-14T01:19:42;3.80;99.90
1297;DHT22;641;48.492;9.184;2024-02-14T01:22:09;3.20;99.90
1297;DHT22;641;48.492;9.184;2024-02-14T01:24:34;3.00;99.90
1297;DHT22;641;48.492;9.184;2024-02-14T01:27:01;2.90;99.90
1297;DHT22;641;48.492;9.184;2024-02-14T01:29:28;2.80;99.90
1297;DHT22;641;48.492;9.184;2024-02-14T01:31:53;3.10;99.90
1297;DHT22;641;48.492;9.184;2024-02-14T01:34:20;2.90;99.90
1297;DHT22;641;48.492;9.184;2024-02-14T01:36:46;2.70;99.90
1297;DHT22;641;48.492;9.184;2024-02-14T01:39:11;2.70;99.90
1297;DHT22;641;48.492;9.184;2024-02-14T01:41:38;2.60;99.90
1297;DHT22;641;48.492;9.184;2024-02-14T01:44:06;2.70;99.90
1297;DHT22;641;48.492;9.184;2024-02-14T01:46:32;2.70;99.90
1297;DHT22;641;48.492;9.184;2024-02-14T01:48:58;3.10;99.90
1297;DHT22;641;48.492;9.184;2024-02-14T01:51:24;3.10;99.90
1297;DHT22;641;48.492;9.184;2024-02-14T01:53:51;3.10;99.90
1297;DHT22;641;48.492;9.184;2024-02-14T01:56:18;3.10;99.90
1297;DHT22;641;48.492;9.184;2024-02-14T01:58:43;3.10;99.90
1297;DHT22;641;48.492;9.184;2024-02-14T02:01:09;3.00;99.90
1297;DHT22;641;48.492;9.184;2024-02-14T02:03:35;3.00;99.90
1297;DHT22;641;48.492;9.184;2024-02-14T02:06:03;2.80;99.90
1297;DHT22;641;48.492;9.184;2024-02-14T02:08:30;3.00;99.90
1297;DHT22;641;48.492;9.184;2024-02-14T02:10:57;3.10;99.90
1297;DHT22;641;48.492;9.184;2024-02-14T02:13:23;3.20;99.90
1297;DHT22;641;48.492;9.184;2024-02-14T02:15:51;3.30;99.90
1297;DHT22;641;48.492;9.184;2024-02-14T02:18:17;3.20;99.90
1297;DHT22;641;48.492;9.184;2024-02-14T02:20:43;3.20;99.90
1297;DHT22;641;48.492;9.184;2024-02-14T02:23:10;3.10;99.90
1297;DHT22;641;48.492;9.184;2024-02-14T02:25:40;3.10;99.90
1297;DHT22;641;48.492;9.184;2024-02-14T02:28:05;3.20;99.90
1297;DHT22;641;48.492;9.184;2024-02-14T02:30:31;2.80;99.90
1297;DHT22;641;48.492;9.184;2024-02-14T02:32:57;2.80;99.90
1297;DHT22;641;48.492;9.184;2024-02-14T02:35:23;3.10;99.90
1297;DHT22;641;48.492;9.184;2024-02-14T02:37:49;3.20;99.90
1297;DHT22;641;48.492;9.184;2024-02-14T02:40:16;3.10;99.90
1297;DHT22;641;48.492;9.184;2024-02-14T02:42:42;2.90;99.90
1297;DHT22;641;48.492;9.184;2024-02-14T02:45:09;2.80;99.90
1297;DHT22;641;48.492;9.184;2024-02-14T02:47:34;2.90;99.90
1297;DHT22;641;48.492;9.184;2024-02-14T02:50:00;2.90;99.90
1297;DHT22;641;48.492;9.184;2024-02-14T02:52:27;3.10;99.90
1297;DHT22;641;48.492;9.184;2024-02-14T02:54:53;2.80;99.90
1297;DHT22;641;48.492;9.184;2024-02-14T02:57:19;2.80;99.90
1297;DHT22;641;48.492;9.184;2024-02-14T02:59:45;3.00;99.90
1297;DHT22;641;48.492;9.184;2024-02-14T03:02:14;3.20;99.90
1297;DHT22;641;48.492;9.184;2024-02-14T03:04:39;3.10;99.90
1297;DHT22;641;48.492;9.184;2024-02-14T03:07:05;3.30;99.90
1297;DHT22;641;48.492;9.184;2024-02-14T03:09:37;3.30;99.90
1297;DHT22;641;48.492;9.184;2024-02-14T03:12:03;3.50;99.90
1297;DHT22;641;48.492;9.184;2024-02-14T03:14:32;3.30;99.90
1297;DHT22;641;48.492;9.184;2024-02-14T03:17:02;3.20;99.90
1297;DHT22;641;48.492;9.184;2024-02-14T03:19:28;3.30;99.90
1297;DHT22;641;48.492;9.184;2024-02-14T03:21:54;3.20;99.90
1297;DHT22;641;48.492;9.184;2024-02-14T03:24:20;3.40;99.90
1297;DHT22;641;48.492;9.184;2024-02-14T03:26:46;3.50;99.90
1297;DHT22;641;48.492;9.184;2024-02-14T03:29:12;3.50;99.90
1297;DHT22;641;48.492;9.184;2024-02-14T03:31:38;3.40;99.90
1297;DHT22;641;48.492;9.184;2024-02-14T03:34:04;3.50;99.90
1297;DHT22;641;48.492;9.184;2024-02-14T03:36:30;3.20;99.90
1297;DHT22;641;48.492;9.184;2024-02-14T03:39:00;3.20;99.90
1297;DHT22;641;48.492;9.184;2024-02-14T03:41:29;3.30;99.90
1297;DHT22;641;48.492;9.184;2024-02-14T03:43:55;3.40;99.90
1297;DHT22;641;48.492;9.184;2024-02-14T03:46:28;3.30;99.90
1297;DHT22;641;48.492;9.184;2024-02-14T03:48:54;3.00;99.90
1297;DHT22;641;48.492;9.184;2024-02-14T03:51:22;2.90;99.90
1297;DHT22;641;48.492;9.184;2024-02-14T03:53:48;2.80;99.90
1297;DHT22;641;48.492;9.184;2024-02-14T03:56:13;2.80;99.90
1297;DHT22;641;48.492;9.184;2024-02-14T03:58:41;2.90;99.90
1297;DHT22;641;48.492;9.184;2024-02-14T04:01:07;2.80;99.90
1297;DHT22;641;48.492;9.184;2024-02-14T04:03:33;2.90;99.90
1297;DHT22;641;48.492;9.184;2024-02-14T04:05:58;2.90;99.90
1297;DHT22;641;48.492;9.184;2024-02-14T04:08:24;2.90;99.90
1297;DHT22;641;48.492;9.184;2024-02-14T04:10:49;3.00;99.90
1297;DHT22;641;48.492;9.184;2024-02-14T04:13:16;3.20;99.90
1297;DHT22;641;48.492;9.184;2024-02-14T04:15:42;2.90;99.90
1297;DHT22;641;48.492;9.184;2024-02-14T04:18:08;2.90;99.90
1297;DHT22;641;48.492;9.184;2024-02-14T04:20:34;3.30;99.90
1297;DHT22;641;48.492;9.184;2024-02-14T04:23:00;3.50;99.90
1297;DHT22;641;48.492;9.184;2024-02-14T04:25:25;3.40;99.90
1297;DHT22;641;48.492;9.184;2024-02-14T04:27:51;3.50;99.90
1297;DHT22;641;48.492;9.184;2024-02-14T04:30:17;3.50;99.90
1297;DHT22;641;48.492;9.184;2024-02-14T04:32:42;3.60;99.90
1297;DHT22;641;48.492;9.184;2024-02-14T04:35:09;3.40;99.90
1297;DHT22;641;48.492;9.184;2024-02-14T04:37:34;3.30;99.90
1297;DHT22;641;48.492;9.184;2024-02-14T04:40:00;3.40;99.90
1297;DHT22;641;48.492;9.184;2024-02-14T04:42:26;3.10;99.90
1297;DHT22;641;48.492;9.184;2024-02-14T04:44:52;3.20;99.90
1297;DHT22;641;48.492;9.184;2024-02-14T04:47:17;3.10;99.90
1297;DHT22;641;48.492;9.184;2024-02-14T04:49:43;2.90;99.90
1297;DHT22;641;48.492;9.184;2024-02-14T04:52:08;2.90;99.90
1297;DHT22;641;48.492;9.184;2024-02-14T04:54:34;2.90;99.90
1297;DHT22;641;48.492;9.184;2024-02-14T04:56:59;3.00;99.90
1297;DHT22;641;48.492;9.184;2024-02-14T04:59:25;3.10;99.90
1297;DHT22;641;48.492;9.184;2024-02-14T05:01:51;3.10;99.90
1297;DHT22;641;48.492;9.184;2024-02-14T05:04:18;3.10;99.90
1297;DHT22;641;48.492;9.184;2024-02-14T05:06:44;3.00;99.90
1297;DHT22;641;48.492;9.184;2024-02-14T05:09:10;2.80;99.90
1297;DHT22;641;48.492;9.184;2024-02-14T05:11:40;2.70;99.90
1297;DHT22;641;48.492;9.184;2024-02-14T05:14:05;2.70;99.90
1297;DHT22;641;48.492;9.184;2024-02-14T05:16:31;2.80;99.90
1297;DHT22;641;48.492;9.184;2024-02-14T05:18:56;3.00;99.90
1297;DHT22;641;48.492;9.184;2024-02-14T05:21:22;3.20;99.90
1297;DHT22;641;48.492;9.184;2024-02-14T05:23:48;3.30;99.90
1297;DHT22;641;48.492;9.184;2024-02-14T05:26:13;3.50;99.90
1297;DHT22;641;48.492;9.184;2024-02-14T05:28:39;3.50;99.90
1297;DHT22;641;48.492;9.184;2024-02-14T05:31:05;3.60;99.90
1297;DHT22;641;48.492;9.184;2024-02-14T05:33:31;3.70;99.90
1297;DHT22;641;48.492;9.184;2024-02-14T05:35:56;3.80;99.90
1297;DHT22;641;48.492;9.184;2024-02-14T05:38:22;3.60;99.90
1297;DHT22;641;48.492;9.184;2024-02-14T05:40:48;3.40;99.90
1297;DHT22;641;48.492;9.184;2024-02-14T05:43:15;3.50;99.90
1297;DHT22;641;48.492;9.184;2024-02-14T05:45:41;3.50;99.90
1297;DHT22;641;48.492;9.184;2024-02-14T05:48:07;3.50;99.90
1297;DHT22;641;48.492;9.184;2024-02-14T05:50:33;3.40;99.90
1297;DHT22;641;48.492;9.184;2024-02-14T05:52:59;3.50;99.90
1297;DHT22;641;48.492;9.184;2024-02-14T05:55:25;3.50;99.90
1297;DHT22;641;48.492;9.184;2024-02-14T05:57:51;3.40;99.90
1297;DHT22;641;48.492;9.184;2024-02-14T06:00:18;3.40;99.90
1297;DHT22;641;48.492;9.184;2024-02-14T06:02:44;3.60;99.90
1297;DHT22;641;48.492;9.184;2024-02-14T06:05:10;3.70;99.90
1297;DHT22;641;48.492;9.184;2024-02-14T06:07:39;3.80;99.90
1297;DHT22;641;48.492;9.184;2024-02-14T06:10:08;3.40;99.90
1297;DHT22;641;48.492;9.184;2024-02-14T06:12:34;3.30;99.90
1297;DHT22;641;48.492;9.184;2024-02-14T06:15:01;3.30;99.90
1297;DHT22;641;48.492;9.184;2024-02-14T06:17:26;3.40;99.90
1297;DHT22;641;48.492;9.184;2024-02-14T06:19:53;3.50;99.90
1297;DHT22;641;48.492;9.184;2024-02-14T06:22:18;3.50;99.90
1297;DHT22;641;48.492;9.184;2024-02-14T06:24:44;3.40;99.90
1297;DHT22;641;48.492;9.184;2024-02-14T06:27:10;3.60;99.90
1297;DHT22;641;48.492;9.184;2024-02-14T06:29:36;3.70;99.90
1297;DHT22;641;48.492;9.184;2024-02-14T06:32:02;3.60;99.90
1297;DHT22;641;48.492;9.184;2024-02-14T06:34:27;3.60;99.90
1297;DHT22;641;48.492;9.184;2024-02-14T06:36:54;3.40;99.90
1297;DHT22;641;48.492;9.184;2024-02-14T06:39:20;3.40;99.90
1297;DHT22;641;48.492;9.184;2024-02-14T06:41:46;3.60;99.90
1297;DHT22;641;48.492;9.184;2024-02-14T06:44:12;3.70;99.90
1297;DHT22;641;48.492;9.184;2024-02-14T06:46:38;3.70;99.90
1297;DHT22;641;48.492;9.184;2024-02-14T06:49:04;3.80;99.90
1297;DHT22;641;48.492;9.184;2024-02-14T06:51:29;3.90;99.90
1297;DHT22;641;48.492;9.184;2024-02-14T06:53:56;4.10;99.90
1297;DHT22;641;48.492;9.184;2024-02-14T06:56:22;4.20;99.90
1297;DHT22;641;48.492;9.184;2024-02-14T06:58:47;4.10;99.90
1297;DHT22;641;48.492;9.184;2024-02-14T07:01:18;3.90;99.90
1297;DHT22;641;48.492;9.184;2024-02-14T07:03:47;4.00;99.90
1297;DHT22;641;48.492;9.184;2024-02-14T07:06:13;3.90;99.90
1297;DHT22;641;48.492;9.184;2024-02-14T07:08:41;3.80;99.90
1297;DHT22;641;48.492;9.184;2024-02-14T07:11:06;3.70;99.90
1297;DHT22;641;48.492;9.184;2024-02-14T07:13:32;3.50;99.90
1297;DHT22;641;48.492;9.184;2024-02-14T07:15:57;3.30;99.90
1297;DHT22;641;48.492;9.184;2024-02-14T07:18:23;3.40;99.90
1297;DHT22;641;48.492;9.184;2024-02-14T07:20:48;3.70;99.90
1297;DHT22;641;48.492;9.184;2024-02-14T07:23:14;3.80;99.90
1297;DHT22;641;48.492;9.184;2024-02-14T07:25:40;3.80;99.90
1297;DHT22;641;48.492;9.184;2024-02-14T07:28:06;4.00;99.90
1297;DHT22;641;48.492;9.184;2024-02-14T07:30:31;4.10;99.90
1297;DHT22;641;48.492;9.184;2024-02-14T07:32:57;4.30;99.90
1297;DHT22;641;48.492;9.184;2024-02-14T07:35:23;4.50;99.90
1297;DHT22;641;48.492;9.184;2024-02-14T07:37:48;4.60;99.90
1297;DHT22;641;48.492;9.184;2024-02-14T07:40:14;4.70;99.90
1297;DHT22;641;48.492;9.184;2024-02-14T07:42:40;4.80;99.90
1297;DHT22;641;48.492;9.184;2024-02-14T07:45:06;4.70;99.90
1297;DHT22;641;48.492;9.184;2024-02-14T07:47:31;4.80;99.90
1297;DHT22;641;48.492;9.184;2024-02-14T07:49:57;4.90;99.90
1297;DHT22;641;48.492;9.184;2024-02-14T07:52:23;5.10;99.90
1297;DHT22;641;48.492;9.184;2024-02-14T07:54:55;5.10;99.90
1297;DHT22;641;48.492;9.184;2024-02-14T07:57:24;5.20;99.90
1297;DHT22;641;48.492;9.184;2024-02-14T07:59:51;5.40;99.90
1297;DHT22;641;48.492;9.184;2024-02-14T08:02:20;5.40;99.90
1297;DHT22;641;48.492;9.184;2024-02-14T08:04:46;5.50;99.90
1297;DHT22;641;48.492;9.184;2024-02-14T08:07:11;5.60;99.90
1297;DHT22;641;48.492;9.184;2024-02-14T08:09:37;5.60;99.90
1297;DHT22;641;48.492;9.184;2024-02-14T08:12:05;5.80;99.90
1297;DHT22;641;48.492;9.184;2024-02-14T08:14:31;5.90;99.90
1297;DHT22;641;48.492;9.184;2024-02-14T08:16:56;6.10;99.90
1297;DHT22;641;48.492;9.184;2024-02-14T08:19:22;6.20;99.90
1297;DHT22;641;48.492;9.184;2024-02-14T08:21:47;6.40;99.90
1297;DHT22;641;48.492;9.184;2024-02-14T08:24:13;6.50;99.90
1297;DHT22;641;48.492;9.184;2024-02-14T08:26:38;6.60;99.90
1297;DHT22;641;48.492;9.184;2024-02-14T08:29:04;6.70;99.90
1297;DHT22;641;48.492;9.184;2024-02-14T08:31:29;6.90;99.90
1297;DHT22;641;48.492;9.184;2024-02-14T08:33:56;7.00;99.90
1297;DHT22;641;48.492;9.184;2024-02-14T08:36:21;7.10;99.90
1297;DHT22;641;48.492;9.184;2024-02-14T08:38:47;7.10;99.90
1297;DHT22;641;48.492;9.184;2024-02-14T08:41:13;6.80;99.90
1297;DHT22;641;48.492;9.184;2024-02-14T08:43:39;6.80;99.90
1297;DHT22;641;48.492;9.184;2024-02-14T08:46:12;6.90;99.90
1297;DHT22;641;48.492;9.184;2024-02-14T08:48:38;6.90;99.90
1297;DHT22;641;48.492;9.184;2024-02-14T08:51:13;7.10;99.90
1297;DHT22;641;48.492;9.184;2024-02-14T08:53:39;7.20;99.90
1297;DHT22;641;48.492;9.184;2024-02-14T08:56:06;7.20;99.90
1297;DHT22;641;48.492;9.184;2024-02-14T08:58:32;7.30;99.90
1297;DHT22;641;48.492;9.184;2024-02-14T09:00:57;7.40;99.90
1297;DHT22;641;48.492;9.184;2024-02-14T09:03:23;7.40;99.90
1297;DHT22;641;48.492;9.184;2024-02-14T09:05:48;7.40;99.90
1297;DHT22;641;48.492;9.184;2024-02-14T09:08:14;7.40;99.90
1297;DHT22;641;48.492;9.184;2024-02-14T09:10:40;7.30;99.90
1297;DHT22;641;48.492;9.184;2024-02-14T09:13:05;7.40;99.90
1297;DHT22;641;48.492;9.184;2024-02-14T09:15:33;7.50;99.90
1297;DHT22;641;48.492;9.184;2024-02-14T09:17:58;7.60;99.90
1297;DHT22;641;48.492;9.184;2024-02-14T09:20:25;7.70;99.90
1297;DHT22;641;48.492;9.184;2024-02-14T09:22:51;7.90;99.90
1297;DHT22;641;48.492;9.184;2024-02-14T09:25:17;7.70;99.90
1297;DHT22;641;48.492;9.184;2024-02-14T09:27:42;7.70;99.90
1297;DHT22;641;48.492;9.184;2024-02-14T09:30:09;7.70;99.90
1297;DHT22;641;48.492;9.184;2024-02-14T09:32:35;7.80;99.90
1297;DHT22;641;48.492;9.184;2024-02-14T09:35:01;7.90;99.90
1297;DHT22;641;48.492;9.184;2024-02-14T09:37:29;8.10;99.90
1297;DHT22;641;48.492;9.184;2024-02-14T09:39:54;8.10;99.90
1297;DHT22;641;48.492;9.184;2024-02-14T09:42:36;8.00;99.90
1297;DHT22;641;48.492;9.184;2024-02-14T09:45:04;8.10;99.90
1297;DHT22;641;48.492;9.184;2024-02-14T09:47:31;8.20;99.90
1297;DHT22;641;48.492;9.184;2024-02-14T09:50:01;8.30;99.90
1297;DHT22;641;48.492;9.184;2024-02-14T09:52:28;8.40;99.90
1297;DHT22;641;48.492;9.184;2024-02-14T09:54:55;8.50;99.90
1297;DHT22;641;48.492;9.184;2024-02-14T09:57:21;8.60;99.90
1297;DHT22;641;48.492;9.184;2024-02-14T09:59:47;8.70;99.90
1297;DHT22;641;48.492;9.184;2024-02-14T10:02:13;8.80;99.90
1297;DHT22;641;48.492;9.184;2024-02-14T10:04:39;8.90;99.90
1297;DHT22;641;48.492;9.184;2024-02-14T10:07:05;9.00;99.90
1297;DHT22;641;48.492;9.184;2024-02-14T10:09:30;9.00;99.90
1297;DHT22;641;48.492;9.184;2024-02-14T10:11:56;9.20;99.90
1297;DHT22;641;48.492;9.184;2024-02-14T10:14:23;9.40;99.90
1297;DHT22;641;48.492;9.184;2024-02-14T10:16:49;9.50;99.90
1297;DHT22;641;48.492;9.184;2024-02-14T10:19:15;9.60;99.90
1297;DHT22;641;48.492;9.184;2024-02-14T10:21:41;9.70;99.90
1297;DHT22;641;48.492;9.184;2024-02-14T10:24:07;9.70;99.90
1297;DHT22;641;48.492;9.184;2024-02-14T10:26:34;9.90;99.90
1297;DHT22;641;48.492;9.184;2024-02-14T10:29:00;10.00;99.90
1297;DHT22;641;48.492;9.184;2024-02-14T10:31:26;10.10;99.90
1297;DHT22;641;48.492;9.184;2024-02-14T10:33:55;10.20;99.90
1297;DHT22;641;48.492;9.184;2024-02-14T10:36:24;10.20;99.90
1297;DHT22;641;48.492;9.184;2024-02-14T10:38:51;10.40;99.90
1297;DHT22;641;48.492;9.184;2024-02-14T10:41:17;10.60;99.90
1297;DHT22;641;48.492;9.184;2024-02-14T10:43:43;10.80;99.90
1297;DHT22;641;48.492;9.184;2024-02-14T10:46:20;11.00;99.90
1297;DHT22;641;48.492;9.184;2024-02-14T10:48:58;11.20;99.90
1297;DHT22;641;48.492;9.184;2024-02-14T10:51:25;11.30;99.90
1297;DHT22;641;48.492;9.184;2024-02-14T10:53:55;11.50;99.90
1297;DHT22;641;48.492;9.184;2024-02-14T10:56:22;11.50;99.90
1297;DHT22;641;48.492;9.184;2024-02-14T10:58:49;11.60;99.90
1297;DHT22;641;48.492;9.184;2024-02-14T11:01:18;11.70;99.90
1297;DHT22;641;48.492;9.184;2024-02-14T11:03:45;11.90;99.90
1297;DHT22;641;48.492;9.184;2024-02-14T11:06:15;12.10;99.90
1297;DHT22;641;48.492;9.184;2024-02-14T11:08:42;12.30;99.90
1297;DHT22;641;48.492;9.184;2024-02-14T11:11:07;12.40;99.90
1297;DHT22;641;48.492;9.184;2024-02-14T11:13:35;12.50;99.90
1297;DHT22;641;48.492;9.184;2024-02-14T11:16:01;12.50;99.90
1297;DHT22;641;48.492;9.184;2024-02-14T11:18:28;12.60;99.90
1297;DHT22;641;48.492;9.184;2024-02-14T11:20:58;12.70;99.90
1297;DHT22;641;48.492;9.184;2024-02-14T11:23:24;12.90;99.90
1297;DHT22;641;48.492;9.184;2024-02-14T11:25:59;13.10;99.90
1297;DHT22;641;48.492;9.184;2024-02-14T11:28:25;13.10;99.90
1297;DHT22;641;48.492;9.184;2024-02-14T11:30:51;13.10;99.90
1297;DHT22;641;48.492;9.184;2024-02-14T11:33:19;13.20;99.90
1297;DHT22;641;48.492;9.184;2024-02-14T11:35:46;13.10;99.90
1297;DHT22;641;48.492;9.184;2024-02-14T11:38:13;13.20;99.90
1297;DHT22;641;48.492;9.184;2024-02-14T11:40:39;13.30;99.90
1297;DHT22;641;48.492;9.184;2024-02-14T11:43:14;13.40;99.90
1297;DHT22;641;48.492;9.184;2024-02-14T11:45:41;13.40;99.90
1297;DHT22;641;48.492;9.184;2024-02-14T11:48:10;13.30;99.90
1297;DHT22;641;48.492;9.184;2024-02-14T11:50:38;13.10;99.90
1297;DHT22;641;48.492;9.184;2024-02-14T11:53:04;13.00;99.90
1297;DHT22;641;48.492;9.184;2024-02-14T11:55:31;13.10;99.90
1297;DHT22;641;48.492;9.184;2024-02-14T11:57:58;13.00;99.90
1297;DHT22;641;48.492;9.184;2024-02-14T12:00:23;13.00;99.90
1297;DHT22;641;48.492;9.184;2024-02-14T12:02:50;13.00;99.90
1297;DHT22;641;48.492;9.184;2024-02-14T12:05:17;13.10;99.90
1297;DHT22;641;48.492;9.184;2024-02-14T12:07:43;13.00;99.90
1297;DHT22;641;48.492;9.184;2024-02-14T12:10:09;13.00;99.90
1297;DHT22;641;48.492;9.184;2024-02-14T12:12:35;13.00;99.90
1297;DHT22;641;48.492;9.184;2024-02-14T12:15:02;13.10;99.90
1297;DHT22;641;48.492;9.184;2024-02-14T12:17:28;13.20;99.90
1297;DHT22;641;48.492;9.184;2024-02-14T12:20:07;13.30;99.90
1297;DHT22;641;48.492;9.184;2024-02-14T12:22:34;13.30;99.90
1297;DHT22;641;48.492;9.184;2024-02-14T12:25:01;13.40;99.90
1297;DHT22;641;48.492;9.184;2024-02-14T12:27:26;13.30;99.90
1297;DHT22;641;48.492;9.184;2024-02-14T12:29:52;13.40;99.90
1297;DHT22;641;48.492;9.184;2024-02-14T12:32:17;13.50;99.90
1297;DHT22;641;48.492;9.184;2024-02-14T12:34:44;13.70;99.90
1297;DHT22;641;48.492;9.184;2024-02-14T12:37:10;13.80;99.90
1297;DHT22;641;48.492;9.184;2024-02-14T12:39:37;13.90;99.90
1297;DHT22;641;48.492;9.184;2024-02-14T12:42:03;14.00;99.90
1297;DHT22;641;48.492;9.184;2024-02-14T12:44:30;13.90;99.90
1297;DHT22;641;48.492;9.184;2024-02-14T12:46:56;13.70;99.90
1297;DHT22;641;48.492;9.184;2024-02-14T12:49:22;13.70;99.90
1297;DHT22;641;48.492;9.184;2024-02-14T12:51:47;13.80;99.90
1297;DHT22;641;48.492;9.184;2024-02-14T12:54:13;13.70;99.90
1297;DHT22;641;48.492;9.184;2024-02-14T12:56:40;13.70;99.90
1297;DHT22;641;48.492;9.184;2024-02-14T12:59:06;13.60;99.90
1297;DHT22;641;48.492;9.184;2024-02-14T13:01:32;13.70;99.90
1297;DHT22;641;48.492;9.184;2024-02-14T13:03:57;13.70;99.90
1297;DHT22;641;48.492;9.184;2024-02-14T13:06:24;13.70;99.90
1297;DHT22;641;48.492;9.184;2024-02-14T13:08:50;13.80;99.90
1297;DHT22;641;48.492;9.184;2024-02-14T13:11:15;13.80;99.90
1297;DHT22;641;48.492;9.184;2024-02-14T13:13:44;13.80;99.90
1297;DHT22;641;48.492;9.184;2024-02-14T13:16:09;13.80;99.90
1297;DHT22;641;48.492;9.184;2024-02-14T13:18:35;13.80;99.90
1297;DHT22;641;48.492;9.184;2024-02-14T13:21:00;13.80;99.90
1297;DHT22;641;48.492;9.184;2024-02-14T13:23:26;13.90;99.90
1297;DHT22;641;48.492;9.184;2024-02-14T13:25:52;13.90;99.90
1297;DHT22;641;48.492;9.184;2024-02-14T13:28:17;13.90;99.90
1297;DHT22;641;48.492;9.184;2024-02-14T13:30:44;13.90;99.90
1297;DHT22;641;48.492;9.184;2024-02-14T13:33:10;13.80;99.90
1297;DHT22;641;48.492;9.184;2024-02-14T13:35:37;13.80;99.90
1297;DHT22;641;48.492;9.184;2024-02-14T13:38:04;13.80;99.90
1297;DHT22;641;48.492;9.184;2024-02-14T13:40:31;13.80;99.90
1297;DHT22;641;48.492;9.184;2024-02-14T13:42:57;13.80;99.90
1297;DHT22;641;48.492;9.184;2024-02-14T13:45:24;13.90;99.90
1297;DHT22;641;48.492;9.184;2024-02-14T13:47:50;13.90;99.90
1297;DHT22;641;48.492;9.184;2024-02-14T13:50:16;13.90;99.90
1297;DHT22;641;48.492;9.184;2024-02-14T13:52:41;13.90;99.90
1297;DHT22;641;48.492;9.184;2024-02-14T13:55:07;13.90;99.90
1297;DHT22;641;48.492;9.184;2024-02-14T13:57:37;13.80;99.90
1297;DHT22;641;48.492;9.184;2024-02-14T14:00:07;13.80;99.90
1297;DHT22;641;48.492;9.184;2024-02-14T14:02:37;13.70;99.90
1297;DHT22;641;48.492;9.184;2024-02-14T14:05:07;13.60;99.90
1297;DHT22;641;48.492;9.184;2024-02-14T14:07:35;13.70;99.90
1297;DHT22;641;48.492;9.184;2024-02-14T14:10:02;13.60;99.90
1297;DHT22;641;48.492;9.184;2024-02-14T14:12:28;13.50;99.90
1297;DHT22;641;48.492;9.184;2024-02-14T14:14:54;13.50;99.90
1297;DHT22;641;48.492;9.184;2024-02-14T14:17:19;13.50;99.90
1297;DHT22;641;48.492;9.184;2024-02-14T14:19:45;13.50;99.90
1297;DHT22;641;48.492;9.184;2024-02-14T14:22:10;13.40;99.90
1297;DHT22;641;48.492;9.184;2024-02-14T14:24:36;13.40;99.90
1297;DHT22;641;48.492;9.184;2024-02-14T14:27:02;13.50;99.90
1297;DHT22;641;48.492;9.184;2024-02-14T14:29:27;13.60;99.90
1297;DHT22;641;48.492;9.184;2024-02-14T14:31:53;13.60;99.90
1297;DHT22;641;48.492;9.184;2024-02-14T14:34:19;13.60;99.90
1297;DHT22;641;48.492;9.184;2024-02-14T14:36:45;13.60;99.90
1297;DHT22;641;48.492;9.184;2024-02-14T14:39:11;13.60;99.90
1297;DHT22;641;48.492;9.184;2024-02-14T14:41:37;13.60;99.90
1297;DHT22;641;48.492;9.184;2024-02-14T14:44:03;13.60;99.90
1297;DHT22;641;48.492;9.184;2024-02-14T14:46:29;13.60;99.90
1297;DHT22;641;48.492;9.184;2024-02-14T14:48:57;13.60;99.90
1297;DHT22;641;48.492;9.184;2024-02-14T14:51:22;13.70;99.90
1297;DHT22;641;48.492;9.184;2024-02-14T14:53:48;13.80;99.90
1297;DHT22;641;48.492;9.184;2024-02-14T14:56:13;13.90;99.90
1297;DHT22;641;48.492;9.184;2024-02-14T14:58:39;13.90;99.90
1297;DHT22;641;48.492;9.184;2024-02-14T15:01:07;13.90;99.90
1297;DHT22;641;48.492;9.184;2024-02-14T15:03:34;13.80;99.90
1297;DHT22;641;48.492;9.184;2024-02-14T15:06:00;13.70;99.90
1297;DHT22;641;48.492;9.184;2024-02-14T15:08:26;13.70;99.90
1297;DHT22;641;48.492;9.184;2024-02-14T15:10:53;13.70;99.90
1297;DHT22;641;48.492;9.184;2024-02-14T15:13:21;13.70;99.90
1297;DHT22;641;48.492;9.184;2024-02-14T15:15:47;13.70;99.90
1297;DHT22;641;48.492;9.184;2024-02-14T15:18:12;13.70;99.90
1297;DHT22;641;48.492;9.184;2024-02-14T15:20:38;13.80;99.90
1297;DHT22;641;48.492;9.184;2024-02-14T15:23:04;13.80;99.90
1297;DHT22;641;48.492;9.184;2024-02-14T15:25:30;13.80;99.90
1297;DHT22;641;48.492;9.184;2024-02-14T15:27:55;13.80;99.90
1297;DHT22;641;48.492;9.184;2024-02-14T15:30:24;13.80;99.90
1297;DHT22;641;48.492;9.184;2024-02-14T15:33:09;13.70;99.90
1297;DHT22;641;48.492;9.184;2024-02-14T15:35:53;13.60;99.90
1297;DHT22;641;48.492;9.184;2024-02-14T15:38:20;13.60;99.90
1297;DHT22;641;48.492;9.184;2024-02-14T15:40:47;13.60;99.90
1297;DHT22;641;48.492;9.184;2024-02-14T15:43:13;13.50;99.90
1297;DHT22;641;48.492;9.184;2024-02-14T15:45:39;13.50;99.90
1297;DHT22;641;48.492;9.184;2024-02-14T15:48:05;13.40;99.90
1297;DHT22;641;48.492;9.184;2024-02-14T15:50:32;13.30;99.90
1297;DHT22;641;48.492;9.184;2024-02-14T15:52:58;13.30;99.90
1297;DHT22;641;48.492;9.184;2024-02-14T15:55:23;13.20;99.90
1297;DHT22;641;48.492;9.184;2024-02-14T15:57:49;13.20;99.90
1297;DHT22;641;48.492;9.184;2024-02-14T16:00:15;13.10;99.90
1297;DHT22;641;48.492;9.184;2024-02-14T16:02:40;13.10;99.90
1297;DHT22;641;48.492;9.184;2024-02-14T16:05:07;13.00;99.90
1297;DHT22;641;48.492;9.184;2024-02-14T16:07:35;13.00;99.90
1297;DHT22;641;48.492;9.184;2024-02-14T16:10:00;12.90;99.90
1297;DHT22;641;48.492;9.184;2024-02-14T16:12:26;12.80;99.90
1297;DHT22;641;48.492;9.184;2024-02-14T16:14:52;12.80;99.90
1297;DHT22;641;48.492;9.184;2024-02-14T16:17:17;12.80;99.90
1297;DHT22;641;48.492;9.184;2024-02-14T16:19:43;12.70;99.90
1297;DHT22;641;48.492;9.184;2024-02-14T16:22:08;12.70;99.90
1297;DHT22;641;48.492;9.184;2024-02-14T16:24:35;12.60;99.90